sensor_id;sensor_type;location;lat;lon;timestamp;P1;durP1;ratioP1;P2;durP2;ratioP2
70761;SDS011;58360;0.000;0.000;2023-07-20T00:01:46;13.05;;;4.43;;
70761;SDS011;58360;0.000;0.000;2023-07-20T00:04:12;7.43;;;4.22;;
70761;SDS011;58360;0.000;0.000;2023-07-20T00:06:39;13.70;;;4.25;;
70761;SDS011;58360;0.000;0.000;2023-07-20T00:09:05;7.75;;;4.30;;
70761;SDS011;58360;0.000;0.000;2023-07-20T00:11:31;7.82;;;3.90;;
70761;SDS011;58360;0.000;0.000;2023-07-20T00:14:01;11.05;;;3.83;;
70761;SDS011;58360;0.000;0.000;2023-07-20T00:16:27;10.07;;;4.07;;
70761;SDS011;58360;0.000;0.000;2023-07-20T00:18:52;9.45;;;4.10;;
70761;SDS011;58360;0.000;0.000;2023-07-20T00:21:18;8.15;;;4.15;;
70761;SDS011;58360;0.000;0.000;2023-07-20T00:23:44;8.45;;;3.50;;
70761;SDS011;58360;0.000;0.000;2023-07-20T00:26:10;10.70;;;4.47;;
70761;SDS011;58360;0.000;0.000;2023-07-20T00:28:36;12.68;;;5.13;;
70761;SDS011;58360;0.000;0.000;2023-07-20T00:31:01;10.68;;;4.20;;
70761;SDS011;58360;0.000;0.000;2023-07-20T00:33:27;11.55;;;4.40;;
70761;SDS011;58360;0.000;0.000;2023-07-20T00:35:53;9.55;;;4.28;;
70761;SDS011;58360;0.000;0.000;2023-07-20T00:38:19;9.10;;;4.57;;
70761;SDS011;58360;0.000;0.000;2023-07-20T00:40:45;11.30;;;4.15;;
70761;SDS011;58360;0.000;0.000;2023-07-20T00:43:11;12.15;;;4.18;;
70761;SDS011;58360;0.000;0.000;2023-07-20T00:45:36;7.40;;;4.03;;
70761;SDS011;58360;0.000;0.000;2023-07-20T00:48:04;13.65;;;4.60;;
70761;SDS011;58360;0.000;0.000;2023-07-20T00:50:31;14.85;;;4.97;;
70761;SDS011;58360;0.000;0.000;2023-07-20T00:52:57;12.77;;;4.47;;
70761;SDS011;58360;0.000;0.000;2023-07-20T00:55:23;9.70;;;4.28;;
70761;SDS011;58360;0.000;0.000;2023-07-20T00:57:50;13.90;;;4.25;;
70761;SDS011;58360;0.000;0.000;2023-07-20T01:00:16;14.10;;;4.90;;
70761;SDS011;58360;0.000;0.000;2023-07-20T01:02:43;16.02;;;5.15;;
70761;SDS011;58360;0.000;0.000;2023-07-20T01:05:08;11.68;;;4.97;;
70761;SDS011;58360;0.000;0.000;2023-07-20T01:07:50;12.00;;;4.68;;
70761;SDS011;58360;0.000;0.000;2023-07-20T01:10:53;14.18;;;5.00;;
70761;SDS011;58360;0.000;0.000;2023-07-20T01:13:24;9.93;;;4.80;;
70761;SDS011;58360;0.000;0.000;2023-07-20T01:15:56;12.05;;;4.82;;
70761;SDS011;58360;0.000;0.000;2023-07-20T01:18:24;16.42;;;5.30;;
70761;SDS011;58360;0.000;0.000;2023-07-20T01:20:50;11.90;;;4.72;;
70761;SDS011;58360;0.000;0.000;2023-07-20T01:23:28;9.52;;;4.93;;
70761;SDS011;58360;0.000;0.000;2023-07-20T01:28:56;13.05;;;4.63;;
70761;SDS011;58360;0.000;0.000;2023-07-20T01:31:27;12.00;;;5.10;;
70761;SDS011;58360;0.000;0.000;2023-07-20T01:33:56;12.48;;;4.65;;
70761;SDS011;58360;0.000;0.000;2023-07-20T01:36:24;12.32;;;4.93;;
70761;SDS011;58360;0.000;0.000;2023-07-20T01:38:51;12.30;;;4.70;;
70761;SDS011;58360;0.000;0.000;2023-07-20T01:41:18;8.20;;;4.50;;
70761;SDS011;58360;0.000;0.000;2023-07-20T01:43:44;13.48;;;4.53;;
70761;SDS011;58360;0.000;0.000;2023-07-20T01:46:09;13.70;;;4.63;;
70761;SDS011;58360;0.000;0.000;2023-07-20T01:48:35;11.77;;;5.22;;
70761;SDS011;58360;0.000;0.000;2023-07-20T01:51:01;15.38;;;5.28;;
70761;SDS011;58360;0.000;0.000;2023-07-20T01:53:26;13.45;;;5.28;;
70761;SDS011;58360;0.000;0.000;2023-07-20T01:55:53;10.02;;;5.03;;
70761;SDS011;58360;0.000;0.000;2023-07-20T01:58:21;13.07;;;5.10;;
70761;SDS011;58360;0.000;0.000;2023-07-20T02:00:47;12.55;;;5.20;;
70761;SDS011;58360;0.000;0.000;2023-07-20T02:03:13;11.82;;;5.30;;
70761;SDS011;58360;0.000;0.000;2023-07-20T02:05:39;12.27;;;5.30;;
70761;SDS011;58360;0.000;0.000;2023-07-20T02:08:04;12.02;;;4.95;;
70761;SDS011;58360;0.000;0.000;2023-07-20T02:10:30;15.32;;;6.13;;
70761;SDS011;58360;0.000;0.000;2023-07-20T02:12:56;11.27;;;5.28;;
70761;SDS011;58360;0.000;0.000;2023-07-20T02:15:22;13.48;;;5.03;;
70761;SDS011;58360;0.000;0.000;2023-07-20T02:17:47;14.77;;;5.78;;
70761;SDS011;58360;0.000;0.000;2023-07-20T02:20:13;12.18;;;5.53;;
70761;SDS011;58360;0.000;0.000;2023-07-20T02:22:39;11.25;;;5.43;;
70761;SDS011;58360;0.000;0.000;2023-07-20T02:25:05;16.85;;;5.80;;
70761;SDS011;58360;0.000;0.000;2023-07-20T02:27:35;14.50;;;5.72;;
70761;SDS011;58360;0.000;0.000;2023-07-20T02:30:02;10.60;;;5.82;;
70761;SDS011;58360;0.000;0.000;2023-07-20T02:32:28;12.98;;;6.05;;
70761;SDS011;58360;0.000;0.000;2023-07-20T02:34:54;10.93;;;5.32;;
70761;SDS011;58360;0.000;0.000;2023-07-20T02:37:20;11.15;;;5.97;;
70761;SDS011;58360;0.000;0.000;2023-07-20T02:39:46;12.50;;;5.72;;
70761;SDS011;58360;0.000;0.000;2023-07-20T02:42:11;13.35;;;6.05;;
70761;SDS011;58360;0.000;0.000;2023-07-20T02:44:38;15.13;;;5.72;;
70761;SDS011;58360;0.000;0.000;2023-07-20T02:47:03;14.95;;;5.97;;
70761;SDS011;58360;0.000;0.000;2023-07-20T02:49:29;16.65;;;5.88;;
70761;SDS011;58360;0.000;0.000;2023-07-20T02:51:55;14.18;;;5.70;;
70761;SDS011;58360;0.000;0.000;2023-07-20T02:54:20;10.70;;;5.47;;
70761;SDS011;58360;0.000;0.000;2023-07-20T02:56:46;13.38;;;6.47;;
70761;SDS011;58360;0.000;0.000;2023-07-20T02:59:12;11.30;;;5.97;;
70761;SDS011;58360;0.000;0.000;2023-07-20T03:01:38;12.82;;;5.38;;
70761;SDS011;58360;0.000;0.000;2023-07-20T03:04:03;11.50;;;5.63;;
70761;SDS011;58360;0.000;0.000;2023-07-20T03:06:29;11.93;;;5.85;;
70761;SDS011;58360;0.000;0.000;2023-07-20T03:08:55;11.30;;;6.13;;
70761;SDS011;58360;0.000;0.000;2023-07-20T03:11:21;13.95;;;6.65;;
70761;SDS011;58360;0.000;0.000;2023-07-20T03:13:46;12.30;;;6.80;;
70761;SDS011;58360;0.000;0.000;2023-07-20T03:16:14;12.40;;;6.18;;
70761;SDS011;58360;0.000;0.000;2023-07-20T03:18:42;13.80;;;7.22;;
70761;SDS011;58360;0.000;0.000;2023-07-20T03:21:08;18.30;;;6.47;;
70761;SDS011;58360;0.000;0.000;2023-07-20T03:23:38;14.77;;;6.47;;
70761;SDS011;58360;0.000;0.000;2023-07-20T03:26:05;16.40;;;6.55;;
70761;SDS011;58360;0.000;0.000;2023-07-20T03:28:33;14.05;;;6.53;;
70761;SDS011;58360;0.000;0.000;2023-07-20T03:31:02;16.88;;;7.35;;
70761;SDS011;58360;0.000;0.000;2023-07-20T03:33:28;14.70;;;7.03;;
70761;SDS011;58360;0.000;0.000;2023-07-20T03:35:55;12.50;;;7.10;;
70761;SDS011;58360;0.000;0.000;2023-07-20T03:38:21;11.90;;;7.07;;
70761;SDS011;58360;0.000;0.000;2023-07-20T03:40:57;14.65;;;7.45;;
70761;SDS011;58360;0.000;0.000;2023-07-20T03:43:24;13.88;;;7.13;;
70761;SDS011;58360;0.000;0.000;2023-07-20T03:45:51;15.82;;;7.65;;
70761;SDS011;58360;0.000;0.000;2023-07-20T03:48:18;14.15;;;7.35;;
70761;SDS011;58360;0.000;0.000;2023-07-20T03:50:45;15.88;;;7.10;;
70761;SDS011;58360;0.000;0.000;2023-07-20T03:53:11;14.23;;;7.15;;
70761;SDS011;58360;0.000;0.000;2023-07-20T03:55:37;18.52;;;7.45;;
70761;SDS011;58360;0.000;0.000;2023-07-20T03:58:03;15.88;;;7.38;;
70761;SDS011;58360;0.000;0.000;2023-07-20T04:00:28;18.70;;;8.02;;
70761;SDS011;58360;0.000;0.000;2023-07-20T04:02:54;18.80;;;8.63;;
70761;SDS011;58360;0.000;0.000;2023-07-20T04:05:20;13.50;;;7.88;;
70761;SDS011;58360;0.000;0.000;2023-07-20T04:07:45;14.60;;;8.35;;
70761;SDS011;58360;0.000;0.000;2023-07-20T04:10:11;14.75;;;8.48;;
70761;SDS011;58360;0.000;0.000;2023-07-20T04:12:37;15.77;;;8.05;;
70761;SDS011;58360;0.000;0.000;2023-07-20T04:15:03;13.73;;;8.02;;
70761;SDS011;58360;0.000;0.000;2023-07-20T04:17:29;15.05;;;8.27;;
70761;SDS011;58360;0.000;0.000;2023-07-20T04:19:55;18.00;;;8.35;;
70761;SDS011;58360;0.000;0.000;2023-07-20T04:22:20;15.68;;;8.13;;
70761;SDS011;58360;0.000;0.000;2023-07-20T04:24:46;18.77;;;8.40;;
70761;SDS011;58360;0.000;0.000;2023-07-20T04:27:12;17.85;;;8.80;;
70761;SDS011;58360;0.000;0.000;2023-07-20T04:29:37;19.13;;;8.40;;
70761;SDS011;58360;0.000;0.000;2023-07-20T04:32:03;17.55;;;7.68;;
70761;SDS011;58360;0.000;0.000;2023-07-20T04:34:29;15.63;;;7.88;;
70761;SDS011;58360;0.000;0.000;2023-07-20T04:36:55;12.77;;;7.47;;
70761;SDS011;58360;0.000;0.000;2023-07-20T04:39:20;16.15;;;7.75;;
70761;SDS011;58360;0.000;0.000;2023-07-20T04:41:46;15.20;;;8.23;;
70761;SDS011;58360;0.000;0.000;2023-07-20T04:44:12;13.10;;;7.80;;
70761;SDS011;58360;0.000;0.000;2023-07-20T04:46:39;15.93;;;8.60;;
70761;SDS011;58360;0.000;0.000;2023-07-20T04:49:05;12.27;;;8.38;;
70761;SDS011;58360;0.000;0.000;2023-07-20T04:51:31;16.65;;;8.80;;
70761;SDS011;58360;0.000;0.000;2023-07-20T04:53:57;18.83;;;8.80;;
70761;SDS011;58360;0.000;0.000;2023-07-20T04:56:23;15.93;;;9.25;;
70761;SDS011;58360;0.000;0.000;2023-07-20T04:58:49;14.35;;;8.55;;
70761;SDS011;58360;0.000;0.000;2023-07-20T05:01:15;13.35;;;8.48;;
70761;SDS011;58360;0.000;0.000;2023-07-20T05:03:41;16.67;;;8.68;;
70761;SDS011;58360;0.000;0.000;2023-07-20T05:06:07;17.48;;;9.27;;
70761;SDS011;58360;0.000;0.000;2023-07-20T05:08:32;14.90;;;8.82;;
70761;SDS011;58360;0.000;0.000;2023-07-20T05:11:02;15.77;;;8.63;;
70761;SDS011;58360;0.000;0.000;2023-07-20T05:13:27;14.35;;;9.30;;
70761;SDS011;58360;0.000;0.000;2023-07-20T05:15:53;14.30;;;8.88;;
70761;SDS011;58360;0.000;0.000;2023-07-20T05:18:19;14.63;;;8.68;;
70761;SDS011;58360;0.000;0.000;2023-07-20T05:20:49;15.00;;;9.20;;
70761;SDS011;58360;0.000;0.000;2023-07-20T05:23:17;12.45;;;8.65;;
70761;SDS011;58360;0.000;0.000;2023-07-20T05:25:44;13.30;;;9.90;;
70761;SDS011;58360;0.000;0.000;2023-07-20T05:28:10;16.65;;;9.57;;
70761;SDS011;58360;0.000;0.000;2023-07-20T05:30:36;13.70;;;8.70;;
70761;SDS011;58360;0.000;0.000;2023-07-20T05:33:02;12.57;;;8.43;;
70761;SDS011;58360;0.000;0.000;2023-07-20T05:35:28;13.45;;;8.50;;
70761;SDS011;58360;0.000;0.000;2023-07-20T05:37:53;13.55;;;8.25;;
70761;SDS011;58360;0.000;0.000;2023-07-20T05:40:19;11.80;;;8.30;;
70761;SDS011;58360;0.000;0.000;2023-07-20T05:42:46;13.10;;;8.30;;
70761;SDS011;58360;0.000;0.000;2023-07-20T05:45:13;11.82;;;7.40;;
70761;SDS011;58360;0.000;0.000;2023-07-20T05:47:39;13.18;;;7.20;;
70761;SDS011;58360;0.000;0.000;2023-07-20T05:50:05;10.90;;;7.38;;
70761;SDS011;58360;0.000;0.000;2023-07-20T05:52:31;15.05;;;7.50;;
70761;SDS011;58360;0.000;0.000;2023-07-20T05:54:57;11.05;;;6.75;;
70761;SDS011;58360;0.000;0.000;2023-07-20T05:57:22;9.85;;;7.35;;
70761;SDS011;58360;0.000;0.000;2023-07-20T05:59:48;12.88;;;7.30;;
70761;SDS011;58360;0.000;0.000;2023-07-20T06:02:14;10.13;;;7.07;;
70761;SDS011;58360;0.000;0.000;2023-07-20T06:04:40;14.77;;;7.90;;
70761;SDS011;58360;0.000;0.000;2023-07-20T06:07:05;12.43;;;8.90;;
70761;SDS011;58360;0.000;0.000;2023-07-20T06:09:33;13.02;;;8.73;;
70761;SDS011;58360;0.000;0.000;2023-07-20T06:11:59;13.43;;;8.57;;
70761;SDS011;58360;0.000;0.000;2023-07-20T06:14:25;12.45;;;8.68;;
70761;SDS011;58360;0.000;0.000;2023-07-20T06:16:50;13.93;;;8.93;;
70761;SDS011;58360;0.000;0.000;2023-07-20T06:19:16;10.50;;;7.15;;
70761;SDS011;58360;0.000;0.000;2023-07-20T06:21:42;10.23;;;6.75;;
70761;SDS011;58360;0.000;0.000;2023-07-20T06:24:07;12.20;;;7.78;;
70761;SDS011;58360;0.000;0.000;2023-07-20T06:26:33;13.60;;;8.30;;
70761;SDS011;58360;0.000;0.000;2023-07-20T06:29:04;10.88;;;7.05;;
70761;SDS011;58360;0.000;0.000;2023-07-20T06:31:31;13.20;;;7.85;;
70761;SDS011;58360;0.000;0.000;2023-07-20T06:33:57;12.63;;;6.60;;
70761;SDS011;58360;0.000;0.000;2023-07-20T06:36:22;10.50;;;7.07;;
70761;SDS011;58360;0.000;0.000;2023-07-20T06:38:48;11.73;;;6.50;;
70761;SDS011;58360;0.000;0.000;2023-07-20T06:41:14;10.32;;;6.50;;
70761;SDS011;58360;0.000;0.000;2023-07-20T06:43:39;10.10;;;6.68;;
70761;SDS011;58360;0.000;0.000;2023-07-20T06:46:05;10.57;;;6.22;;
70761;SDS011;58360;0.000;0.000;2023-07-20T06:48:31;9.02;;;5.88;;
70761;SDS011;58360;0.000;0.000;2023-07-20T06:50:56;10.07;;;6.07;;
70761;SDS011;58360;0.000;0.000;2023-07-20T06:53:22;9.02;;;5.50;;
70761;SDS011;58360;0.000;0.000;2023-07-20T06:55:48;7.20;;;5.22;;
70761;SDS011;58360;0.000;0.000;2023-07-20T06:58:16;9.00;;;5.55;;
70761;SDS011;58360;0.000;0.000;2023-07-20T07:00:43;9.25;;;5.68;;
70761;SDS011;58360;0.000;0.000;2023-07-20T07:03:09;11.95;;;4.97;;
70761;SDS011;58360;0.000;0.000;2023-07-20T07:05:36;9.10;;;4.50;;
70761;SDS011;58360;0.000;0.000;2023-07-20T07:08:02;8.88;;;4.32;;
70761;SDS011;58360;0.000;0.000;2023-07-20T07:10:34;9.32;;;3.90;;
70761;SDS011;58360;0.000;0.000;2023-07-20T07:13:03;7.57;;;4.20;;
70761;SDS011;58360;0.000;0.000;2023-07-20T07:15:29;7.95;;;4.93;;
70761;SDS011;58360;0.000;0.000;2023-07-20T07:17:54;8.13;;;3.67;;
70761;SDS011;58360;0.000;0.000;2023-07-20T07:20:21;5.43;;;3.38;;
70761;SDS011;58360;0.000;0.000;2023-07-20T07:22:47;7.38;;;3.47;;
70761;SDS011;58360;0.000;0.000;2023-07-20T07:25:13;6.65;;;2.92;;
70761;SDS011;58360;0.000;0.000;2023-07-20T07:27:39;5.82;;;3.22;;
70761;SDS011;58360;0.000;0.000;2023-07-20T07:30:05;7.40;;;3.25;;
70761;SDS011;58360;0.000;0.000;2023-07-20T07:32:31;6.13;;;2.90;;
70761;SDS011;58360;0.000;0.000;2023-07-20T07:34:57;7.25;;;3.05;;
70761;SDS011;58360;0.000;0.000;2023-07-20T07:37:26;5.25;;;2.58;;
70761;SDS011;58360;0.000;0.000;2023-07-20T07:39:51;4.63;;;2.47;;
70761;SDS011;58360;0.000;0.000;2023-07-20T07:42:17;6.18;;;2.90;;
70761;SDS011;58360;0.000;0.000;2023-07-20T07:44:43;4.45;;;1.88;;
70761;SDS011;58360;0.000;0.000;2023-07-20T07:47:09;5.57;;;2.40;;
70761;SDS011;58360;0.000;0.000;2023-07-20T07:49:35;5.95;;;2.40;;
70761;SDS011;58360;0.000;0.000;2023-07-20T07:52:01;7.07;;;2.78;;
70761;SDS011;58360;0.000;0.000;2023-07-20T07:54:29;3.60;;;2.03;;
70761;SDS011;58360;0.000;0.000;2023-07-20T07:56:55;6.07;;;2.40;;
70761;SDS011;58360;0.000;0.000;2023-07-20T07:59:21;5.18;;;2.50;;
70761;SDS011;58360;0.000;0.000;2023-07-20T08:01:47;5.72;;;2.15;;
70761;SDS011;58360;0.000;0.000;2023-07-20T08:04:12;3.92;;;1.98;;
70761;SDS011;58360;0.000;0.000;2023-07-20T08:06:38;4.15;;;2.05;;
70761;SDS011;58360;0.000;0.000;2023-07-20T08:09:04;8.55;;;2.22;;
70761;SDS011;58360;0.000;0.000;2023-07-20T08:11:30;6.43;;;2.13;;
70761;SDS011;58360;0.000;0.000;2023-07-20T08:13:58;4.05;;;2.10;;
70761;SDS011;58360;0.000;0.000;2023-07-20T08:16:27;4.25;;;2.30;;
70761;SDS011;58360;0.000;0.000;2023-07-20T08:18:53;4.88;;;2.67;;
70761;SDS011;58360;0.000;0.000;2023-07-20T08:21:18;4.68;;;1.85;;
70761;SDS011;58360;0.000;0.000;2023-07-20T08:23:45;3.85;;;2.00;;
70761;SDS011;58360;0.000;0.000;2023-07-20T08:26:11;4.30;;;1.85;;
70761;SDS011;58360;0.000;0.000;2023-07-20T08:28:37;6.22;;;2.00;;
70761;SDS011;58360;0.000;0.000;2023-07-20T08:31:05;3.83;;;1.83;;
70761;SDS011;58360;0.000;0.000;2023-07-20T08:33:31;4.20;;;1.70;;
70761;SDS011;58360;0.000;0.000;2023-07-20T08:35:58;3.72;;;1.70;;
70761;SDS011;58360;0.000;0.000;2023-07-20T08:38:26;5.32;;;2.10;;
70761;SDS011;58360;0.000;0.000;2023-07-20T08:40:52;3.90;;;1.75;;
70761;SDS011;58360;0.000;0.000;2023-07-20T08:43:20;5.60;;;2.20;;
70761;SDS011;58360;0.000;0.000;2023-07-20T08:48:17;3.92;;;1.98;;
70761;SDS011;58360;0.000;0.000;2023-07-20T08:50:45;3.40;;;2.00;;
70761;SDS011;58360;0.000;0.000;2023-07-20T08:53:12;3.95;;;2.00;;
70761;SDS011;58360;0.000;0.000;2023-07-20T08:55:39;3.25;;;1.80;;
70761;SDS011;58360;0.000;0.000;2023-07-20T08:58:06;4.60;;;2.20;;
70761;SDS011;58360;0.000;0.000;2023-07-20T09:00:35;3.70;;;1.80;;
70761;SDS011;58360;0.000;0.000;2023-07-20T09:03:01;3.40;;;1.65;;
70761;SDS011;58360;0.000;0.000;2023-07-20T09:05:28;3.65;;;1.60;;
70761;SDS011;58360;0.000;0.000;2023-07-20T09:07:58;5.60;;;1.75;;
70761;SDS011;58360;0.000;0.000;2023-07-20T09:10:25;4.13;;;1.70;;
70761;SDS011;58360;0.000;0.000;2023-07-20T09:12:50;5.45;;;1.80;;
70761;SDS011;58360;0.000;0.000;2023-07-20T09:15:16;3.60;;;1.80;;
70761;SDS011;58360;0.000;0.000;2023-07-20T09:17:48;4.07;;;1.65;;
70761;SDS011;58360;0.000;0.000;2023-07-20T09:20:14;2.95;;;1.50;;
70761;SDS011;58360;0.000;0.000;2023-07-20T09:22:44;5.40;;;1.58;;
70761;SDS011;58360;0.000;0.000;2023-07-20T09:25:14;3.42;;;1.33;;
70761;SDS011;58360;0.000;0.000;2023-07-20T09:27:47;3.05;;;1.48;;
70761;SDS011;58360;0.000;0.000;2023-07-20T09:30:15;3.17;;;1.30;;
70761;SDS011;58360;0.000;0.000;2023-07-20T09:32:43;4.78;;;1.58;;
70761;SDS011;58360;0.000;0.000;2023-07-20T09:35:17;4.75;;;1.40;;
70761;SDS011;58360;0.000;0.000;2023-07-20T09:40:18;3.13;;;1.50;;
70761;SDS011;58360;0.000;0.000;2023-07-20T09:42:45;3.10;;;1.40;;
70761;SDS011;58360;0.000;0.000;2023-07-20T09:45:11;3.10;;;1.58;;
70761;SDS011;58360;0.000;0.000;2023-07-20T09:47:37;3.20;;;1.80;;
70761;SDS011;58360;0.000;0.000;2023-07-20T09:50:03;3.47;;;1.90;;
70761;SDS011;58360;0.000;0.000;2023-07-20T09:52:35;6.63;;;2.00;;
70761;SDS011;58360;0.000;0.000;2023-07-20T09:55:03;6.53;;;1.77;;
70761;SDS011;58360;0.000;0.000;2023-07-20T09:57:30;5.22;;;2.08;;
70761;SDS011;58360;0.000;0.000;2023-07-20T09:59:58;4.50;;;2.00;;
70761;SDS011;58360;0.000;0.000;2023-07-20T10:02:32;5.72;;;2.08;;
70761;SDS011;58360;0.000;0.000;2023-07-20T10:05:00;10.45;;;3.95;;
70761;SDS011;58360;0.000;0.000;2023-07-20T10:07:28;6.35;;;2.60;;
70761;SDS011;58360;0.000;0.000;2023-07-20T10:09:59;5.20;;;2.50;;
70761;SDS011;58360;0.000;0.000;2023-07-20T10:12:28;3.42;;;1.90;;
70761;SDS011;58360;0.000;0.000;2023-07-20T10:14:59;4.22;;;2.10;;
70761;SDS011;58360;0.000;0.000;2023-07-20T10:18:02;5.90;;;1.98;;
70761;SDS011;58360;0.000;0.000;2023-07-20T10:20:49;5.30;;;2.38;;
70761;SDS011;58360;0.000;0.000;2023-07-20T10:23:19;6.72;;;2.00;;
70761;SDS011;58360;0.000;0.000;2023-07-20T10:25:45;3.28;;;1.98;;
70761;SDS011;58360;0.000;0.000;2023-07-20T10:28:11;5.00;;;2.00;;
70761;SDS011;58360;0.000;0.000;2023-07-20T10:30:38;3.47;;;1.80;;
70761;SDS011;58360;0.000;0.000;2023-07-20T10:33:04;5.47;;;1.92;;
70761;SDS011;58360;0.000;0.000;2023-07-20T10:35:32;4.10;;;1.80;;
70761;SDS011;58360;0.000;0.000;2023-07-20T10:38:20;6.13;;;1.85;;
70761;SDS011;58360;0.000;0.000;2023-07-20T10:41:03;5.50;;;1.88;;
70761;SDS011;58360;0.000;0.000;2023-07-20T10:43:29;5.43;;;1.65;;
70761;SDS011;58360;0.000;0.000;2023-07-20T10:45:55;4.97;;;1.80;;
70761;SDS011;58360;0.000;0.000;2023-07-20T10:48:22;5.93;;;1.83;;
70761;SDS011;58360;0.000;0.000;2023-07-20T10:53:34;4.22;;;1.73;;
70761;SDS011;58360;0.000;0.000;2023-07-20T10:56:33;3.60;;;1.67;;
70761;SDS011;58360;0.000;0.000;2023-07-20T10:58:58;4.72;;;1.80;;
70761;SDS011;58360;0.000;0.000;2023-07-20T11:01:30;4.90;;;1.85;;
70761;SDS011;58360;0.000;0.000;2023-07-20T11:04:00;3.75;;;1.85;;
70761;SDS011;58360;0.000;0.000;2023-07-20T11:06:33;4.40;;;1.80;;
70761;SDS011;58360;0.000;0.000;2023-07-20T11:09:09;5.55;;;2.30;;
70761;SDS011;58360;0.000;0.000;2023-07-20T11:11:42;5.00;;;2.20;;
70761;SDS011;58360;0.000;0.000;2023-07-20T11:14:30;3.85;;;1.90;;
70761;SDS011;58360;0.000;0.000;2023-07-20T11:16:59;3.88;;;1.90;;
70761;SDS011;58360;0.000;0.000;2023-07-20T11:19:37;5.57;;;2.03;;
70761;SDS011;58360;0.000;0.000;2023-07-20T11:22:05;7.15;;;1.48;;
70761;SDS011;58360;0.000;0.000;2023-07-20T11:24:33;6.20;;;2.13;;
70761;SDS011;58360;0.000;0.000;2023-07-20T11:26:59;3.85;;;1.98;;
70761;SDS011;58360;0.000;0.000;2023-07-20T11:29:26;3.30;;;1.88;;
70761;SDS011;58360;0.000;0.000;2023-07-20T11:31:52;3.88;;;1.38;;
70761;SDS011;58360;0.000;0.000;2023-07-20T11:34:18;4.90;;;2.00;;
70761;SDS011;58360;0.000;0.000;2023-07-20T11:36:49;4.13;;;1.67;;
70761;SDS011;58360;0.000;0.000;2023-07-20T11:39:16;4.28;;;1.65;;
70761;SDS011;58360;0.000;0.000;2023-07-20T11:41:47;3.97;;;1.75;;
70761;SDS011;58360;0.000;0.000;2023-07-20T11:44:18;3.17;;;1.65;;
70761;SDS011;58360;0.000;0.000;2023-07-20T11:46:53;3.83;;;1.73;;
70761;SDS011;58360;0.000;0.000;2023-07-20T11:49:26;3.70;;;1.60;;
70761;SDS011;58360;0.000;0.000;2023-07-20T11:51:52;5.57;;;1.63;;
70761;SDS011;58360;0.000;0.000;2023-07-20T11:54:18;2.95;;;1.35;;
70761;SDS011;58360;0.000;0.000;2023-07-20T11:56:44;4.57;;;1.52;;
70761;SDS011;58360;0.000;0.000;2023-07-20T11:59:10;4.22;;;1.50;;
70761;SDS011;58360;0.000;0.000;2023-07-20T12:01:36;5.07;;;1.65;;
70761;SDS011;58360;0.000;0.000;2023-07-20T12:04:04;2.50;;;1.40;;
70761;SDS011;58360;0.000;0.000;2023-07-20T12:06:32;5.05;;;2.03;;
70761;SDS011;58360;0.000;0.000;2023-07-20T12:08:58;3.80;;;1.27;;
70761;SDS011;58360;0.000;0.000;2023-07-20T12:11:37;2.35;;;1.02;;
70761;SDS011;58360;0.000;0.000;2023-07-20T12:14:07;2.72;;;1.23;;
70761;SDS011;58360;0.000;0.000;2023-07-20T12:16:34;1.50;;;0.90;;
70761;SDS011;58360;0.000;0.000;2023-07-20T12:19:05;5.68;;;1.30;;
70761;SDS011;58360;0.000;0.000;2023-07-20T12:21:33;2.58;;;1.10;;
70761;SDS011;58360;0.000;0.000;2023-07-20T12:24:01;4.30;;;1.27;;
70761;SDS011;58360;0.000;0.000;2023-07-20T12:26:29;1.35;;;0.90;;
70761;SDS011;58360;0.000;0.000;2023-07-20T12:28:55;5.00;;;1.35;;
70761;SDS011;58360;0.000;0.000;2023-07-20T12:31:21;3.53;;;1.30;;
70761;SDS011;58360;0.000;0.000;2023-07-20T12:33:49;3.63;;;1.20;;
70761;SDS011;58360;0.000;0.000;2023-07-20T12:36:15;2.63;;;1.20;;
70761;SDS011;58360;0.000;0.000;2023-07-20T12:38:42;2.30;;;1.10;;
70761;SDS011;58360;0.000;0.000;2023-07-20T12:41:09;2.33;;;1.20;;
70761;SDS011;58360;0.000;0.000;2023-07-20T12:46:09;2.83;;;1.50;;
70761;SDS011;58360;0.000;0.000;2023-07-20T12:48:36;1.98;;;1.00;;
70761;SDS011;58360;0.000;0.000;2023-07-20T12:51:02;4.25;;;1.52;;
70761;SDS011;58360;0.000;0.000;2023-07-20T12:53:29;3.40;;;1.13;;
70761;SDS011;58360;0.000;0.000;2023-07-20T12:55:56;7.85;;;1.30;;
70761;SDS011;58360;0.000;0.000;2023-07-20T12:58:21;4.95;;;1.20;;
70761;SDS011;58360;0.000;0.000;2023-07-20T13:00:48;2.25;;;1.00;;
70761;SDS011;58360;0.000;0.000;2023-07-20T13:03:15;2.53;;;1.10;;
70761;SDS011;58360;0.000;0.000;2023-07-20T13:05:41;3.47;;;1.10;;
70761;SDS011;58360;0.000;0.000;2023-07-20T13:08:07;3.17;;;1.20;;
70761;SDS011;58360;0.000;0.000;2023-07-20T13:10:33;3.72;;;1.13;;
70761;SDS011;58360;0.000;0.000;2023-07-20T13:12:59;3.30;;;1.20;;
70761;SDS011;58360;0.000;0.000;2023-07-20T13:15:29;2.10;;;1.20;;
70761;SDS011;58360;0.000;0.000;2023-07-20T13:17:57;2.47;;;1.30;;
70761;SDS011;58360;0.000;0.000;2023-07-20T13:20:23;3.63;;;1.27;;
70761;SDS011;58360;0.000;0.000;2023-07-20T13:22:50;2.40;;;1.02;;
70761;SDS011;58360;0.000;0.000;2023-07-20T13:25:16;4.57;;;2.00;;
70761;SDS011;58360;0.000;0.000;2023-07-20T13:27:41;5.25;;;1.30;;
70761;SDS011;58360;0.000;0.000;2023-07-20T13:30:07;2.72;;;1.20;;
70761;SDS011;58360;0.000;0.000;2023-07-20T13:32:39;3.30;;;1.20;;
70761;SDS011;58360;0.000;0.000;2023-07-20T13:35:05;3.30;;;1.65;;
70761;SDS011;58360;0.000;0.000;2023-07-20T13:37:31;6.00;;;1.50;;
70761;SDS011;58360;0.000;0.000;2023-07-20T13:39:56;3.28;;;1.65;;
70761;SDS011;58360;0.000;0.000;2023-07-20T13:42:22;8.65;;;1.55;;
70761;SDS011;58360;0.000;0.000;2023-07-20T13:44:48;5.15;;;1.80;;
70761;SDS011;58360;0.000;0.000;2023-07-20T13:47:14;3.80;;;1.63;;
70761;SDS011;58360;0.000;0.000;2023-07-20T13:49:39;2.97;;;1.42;;
70761;SDS011;58360;0.000;0.000;2023-07-20T13:52:05;5.85;;;1.80;;
70761;SDS011;58360;0.000;0.000;2023-07-20T13:54:31;3.22;;;1.70;;
70761;SDS011;58360;0.000;0.000;2023-07-20T13:56:57;3.83;;;1.90;;
70761;SDS011;58360;0.000;0.000;2023-07-20T13:59:22;7.22;;;1.98;;
70761;SDS011;58360;0.000;0.000;2023-07-20T14:01:48;4.82;;;1.80;;
70761;SDS011;58360;0.000;0.000;2023-07-20T14:04:14;3.00;;;1.35;;
70761;SDS011;58360;0.000;0.000;2023-07-20T14:06:40;4.53;;;1.85;;
70761;SDS011;58360;0.000;0.000;2023-07-20T14:09:06;5.97;;;1.85;;
70761;SDS011;58360;0.000;0.000;2023-07-20T14:11:32;4.07;;;1.90;;
70761;SDS011;58360;0.000;0.000;2023-07-20T14:13:58;5.20;;;2.28;;
70761;SDS011;58360;0.000;0.000;2023-07-20T14:16:24;4.13;;;1.60;;
70761;SDS011;58360;0.000;0.000;2023-07-20T14:18:50;5.60;;;1.60;;
70761;SDS011;58360;0.000;0.000;2023-07-20T14:21:16;6.45;;;2.05;;
70761;SDS011;58360;0.000;0.000;2023-07-20T14:23:50;9.40;;;2.72;;
70761;SDS011;58360;0.000;0.000;2023-07-20T14:26:16;6.28;;;2.10;;
70761;SDS011;58360;0.000;0.000;2023-07-20T14:28:42;3.72;;;1.70;;
70761;SDS011;58360;0.000;0.000;2023-07-20T14:31:07;3.97;;;1.85;;
70761;SDS011;58360;0.000;0.000;2023-07-20T14:33:33;3.22;;;1.90;;
70761;SDS011;58360;0.000;0.000;2023-07-20T14:35:59;6.03;;;2.13;;
70761;SDS011;58360;0.000;0.000;2023-07-20T14:38:27;7.10;;;2.55;;
70761;SDS011;58360;0.000;0.000;2023-07-20T14:40:54;4.32;;;1.95;;
70761;SDS011;58360;0.000;0.000;2023-07-20T14:43:20;3.72;;;1.92;;
70761;SDS011;58360;0.000;0.000;2023-07-20T14:45:45;3.40;;;1.77;;
70761;SDS011;58360;0.000;0.000;2023-07-20T14:48:12;4.72;;;1.92;;
70761;SDS011;58360;0.000;0.000;2023-07-20T14:50:37;3.70;;;1.83;;
70761;SDS011;58360;0.000;0.000;2023-07-20T14:53:03;3.20;;;2.00;;
70761;SDS011;58360;0.000;0.000;2023-07-20T14:55:29;4.93;;;1.83;;
70761;SDS011;58360;0.000;0.000;2023-07-20T14:57:54;6.25;;;1.80;;
70761;SDS011;58360;0.000;0.000;2023-07-20T15:00:20;5.30;;;2.10;;
70761;SDS011;58360;0.000;0.000;2023-07-20T15:02:46;2.67;;;1.75;;
70761;SDS011;58360;0.000;0.000;2023-07-20T15:05:12;3.30;;;1.60;;
70761;SDS011;58360;0.000;0.000;2023-07-20T15:07:45;5.53;;;1.75;;
70761;SDS011;58360;0.000;0.000;2023-07-20T15:10:10;5.22;;;1.83;;